Terminal Aerodrome Forecast
Issued by NWS

Home | Current Version | Previous Version | Text Only | Print | Product List | Glossary On
Versions: 1 2 3 4 5 6 7 8 9 10 11 12 13 14 15 16 17
910
FTUS44 KEPZ 241720
TAFDMN
TAF
KDMN 241720Z 2418/2518 13013G23KT P6SM SCT080 SCT150
     FM242300 13012G22KT P6SM VCTS BKN060CB OVC120
      TEMPO 2501/2505 VRB25G40KT 1SM TSRA BKN030CB
     FM250600 07012KT P6SM SCT060 BKN200
     FM251300 10010KT P6SM SCT100 BKN200=

USA.gov is the U.S. government's official web portal to all federal, state and local government web resources and services.